Time;durP1;ratioP1;P1;durP2;ratioP2;P2;SDS_P1;SDS_P2;PMS_P1;PMS_P2;Temp;Humidity;BMP_temperature;BMP_pressure;BME280_temperature;BME280_humidity;BME280_pressure;Samples;Min_cycle;Max_cycle;Signal;HPM_P1;HPM_P2
2022/02/21 00:02:18;;;;;;;6.95;1.20;;;10.10;90.90;;;;;;5009048;28;20026;-74
2022/02/21 00:04:45;;;;;;;3.75;1.77;;;10.10;91.10;;;;;;5009998;28;20386;-74
2022/02/21 00:07:11;;;;;;;9.35;1.48;;;10.10;91.10;;;;;;4991398;28;20049;-74
2022/02/21 00:09:37;;;;;;;2.13;1.08;;;10.10;91.20;;;;;;5009826;28;20048;-74
2022/02/21 00:12:04;;;;;;;2.83;1.65;;;10.10;91.40;;;;;;5009275;28;20030;-74
2022/02/21 00:14:30;;;;;;;3.08;1.73;;;10.10;91.10;;;;;;5009429;28;20045;-73
2022/02/21 00:16:57;;;;;;;2.88;1.05;;;10.10;91.30;;;;;;5008951;28;20038;-75
2022/02/21 00:19:23;;;;;;;2.40;1.25;;;10.10;91.10;;;;;;4992054;28;20045;-74
2022/02/21 00:21:49;;;;;;;3.63;1.05;;;10.10;91.20;;;;;;5009574;28;20056;-74
2022/02/21 00:24:15;;;;;;;3.08;1.00;;;10.10;91.10;;;;;;5009533;28;20255;-74
2022/02/21 00:26:41;;;;;;;2.90;1.08;;;10.10;91.00;;;;;;5009781;28;20048;-74
2022/02/21 00:29:08;;;;;;;2.92;1.00;;;10.10;91.20;;;;;;5010940;28;20037;-74
2022/02/21 00:31:35;;;;;;;2.50;1.00;;;10.10;91.20;;;;;;5011435;28;20033;-75
2022/02/21 00:34:01;;;;;;;1.73;0.65;;;10.00;91.40;;;;;;5009652;28;20030;-74
2022/02/21 00:36:27;;;;;;;2.08;0.80;;;10.00;91.40;;;;;;5009667;28;20443;-75
2022/02/21 00:38:53;;;;;;;1.40;0.77;;;10.00;91.60;;;;;;4992512;28;20459;-73
2022/02/21 00:41:20;;;;;;;1.75;0.65;;;10.00;91.70;;;;;;5009647;28;20041;-74
2022/02/21 00:43:46;;;;;;;3.05;0.82;;;10.00;91.90;;;;;;4991640;28;20398;-75
2022/02/21 00:46:12;;;;;;;1.77;0.70;;;10.00;92.00;;;;;;5009027;28;20381;-75
2022/02/21 00:48:38;;;;;;;3.55;0.90;;;10.00;92.50;;;;;;4991895;28;20033;-74
2022/02/21 00:51:04;;;;;;;1.98;1.10;;;9.90;92.50;;;;;;4991157;28;20506;-74
2022/02/21 00:53:30;;;;;;;1.05;0.63;;;9.90;92.60;;;;;;5009063;28;20026;-75
2022/02/21 00:55:57;;;;;;;2.50;0.90;;;9.90;92.70;;;;;;4991907;28;20045;-75
2022/02/21 00:58:23;;;;;;;1.58;0.70;;;10.00;92.70;;;;;;5009687;28;20391;-74
2022/02/21 01:00:50;;;;;;;2.70;1.05;;;10.00;92.70;;;;;;5009285;28;20049;-74
2022/02/21 01:03:18;;;;;;;3.92;1.20;;;10.00;92.80;;;;;;5011687;28;20261;-74
2022/02/21 01:05:44;;;;;;;3.05;0.73;;;10.00;92.90;;;;;;5012516;28;20041;-74
2022/02/21 01:08:10;;;;;;;1.33;0.60;;;10.00;93.10;;;;;;4979993;28;20049;-74
2022/02/21 01:10:38;;;;;;;2.85;1.20;;;10.00;93.20;;;;;;5012207;28;20030;-74
2022/02/21 01:13:05;;;;;;;1.58;0.80;;;10.00;93.10;;;;;;4994149;28;20042;-74
2022/02/21 01:15:32;;;;;;;2.33;0.90;;;10.00;92.90;;;;;;4994576;28;20061;-74
2022/02/21 01:17:58;;;;;;;0.98;0.63;;;10.00;93.10;;;;;;5012562;28;20049;-75
2022/02/21 01:20:26;;;;;;;2.80;0.88;;;10.00;93.20;;;;;;4994057;28;20038;-74
2022/02/21 01:22:52;;;;;;;2.65;1.00;;;10.00;93.00;;;;;;4994540;28;20049;-74
2022/02/21 01:25:19;;;;;;;5.35;1.05;;;10.10;92.90;;;;;;4993945;28;20041;-74
2022/02/21 01:27:45;;;;;;;1.20;0.52;;;10.10;92.70;;;;;;4994413;28;20375;-74
2022/02/21 01:30:12;;;;;;;3.90;1.25;;;10.20;92.60;;;;;;5012385;28;20048;-74
2022/02/21 01:32:40;;;;;;;2.85;1.35;;;10.20;92.50;;;;;;4979826;28;20486;-74
2022/02/21 01:35:07;;;;;;;0.88;0.80;;;10.20;92.40;;;;;;5011969;28;20034;-73
2022/02/21 01:37:33;;;;;;;2.75;1.08;;;10.20;92.20;;;;;;5012096;28;20034;-74
2022/02/21 01:39:59;;;;;;;3.83;0.60;;;10.20;92.20;;;;;;4994981;28;20042;-74
2022/02/21 01:42:25;;;;;;;2.10;0.93;;;10.20;92.50;;;;;;4994870;28;20038;-75
2022/02/21 01:44:52;;;;;;;1.27;0.70;;;10.20;92.30;;;;;;4995797;28;20045;-74
2022/02/21 01:47:21;;;;;;;1.38;0.90;;;10.20;92.30;;;;;;5012707;28;20049;-75
2022/02/21 01:49:48;;;;;;;1.80;0.90;;;10.20;92.50;;;;;;5015573;28;20417;-74
2022/02/21 01:52:16;;;;;;;7.10;0.70;;;10.20;92.50;;;;;;5018713;28;20038;-74
2022/02/21 01:54:42;;;;;;;2.42;0.75;;;10.20;93.00;;;;;;5014740;28;20043;-75
2022/02/21 01:57:09;;;;;;;3.63;0.90;;;10.10;93.80;;;;;;5011754;28;20033;-74
2022/02/21 01:59:37;;;;;;;1.15;0.50;;;10.00;95.00;;;;;;4996044;28;20054;-75
2022/02/21 02:02:05;;;;;;;0.95;0.55;;;9.90;95.50;;;;;;4979951;28;20034;-75
2022/02/21 02:04:32;;;;;;;2.33;0.57;;;9.90;96.10;;;;;;5012108;28;20037;-74
2022/02/21 02:07:04;;;;;;;0.70;0.47;;;9.90;96.30;;;;;;5012147;28;20030;-74
2022/02/21 02:09:30;;;;;;;1.15;0.68;;;9.80;97.50;;;;;;5022025;28;20115;-77
2022/02/21 02:11:57;;;;;;;2.45;1.00;;;9.80;97.60;;;;;;5014430;28;20355;-75
2022/02/21 02:14:34;;;;;;;0.93;0.55;;;9.80;98.40;;;;;;4994287;28;20174;-75
2022/02/21 02:17:14;;;;;;;1.30;0.68;;;9.80;99.90;;;;;;5012076;28;20045;-75
2022/02/21 02:19:46;;;;;;;2.70;0.80;;;9.70;99.90;;;;;;4994424;28;20037;-76
2022/02/21 02:22:19;;;;;;;1.77;0.60;;;9.50;99.90;;;;;;4993684;28;20034;-76
2022/02/21 02:24:50;;;;;;;3.80;1.30;;;9.30;99.90;;;;;;4993919;28;20038;-76
2022/02/21 02:27:18;;;;;;;1.75;0.93;;;9.20;99.90;;;;;;4993120;28;20064;-75
2022/02/21 02:29:47;;;;;;;3.35;1.40;;;7.60;99.90;;;;;;5011914;28;20034;-77
2022/02/21 02:32:14;;;;;;;3.63;1.10;;;6.80;99.90;;;;;;5013705;28;20026;-76
2022/02/21 02:34:43;;;;;;;5.82;0.95;;;6.50;99.90;;;;;;4979922;28;20049;-77
2022/02/21 02:37:10;;;;;;;3.58;1.33;;;6.30;99.90;;;;;;4993918;28;20033;-77
2022/02/21 02:39:36;;;;;;;9.05;1.30;;;6.10;99.90;;;;;;4995675;28;20382;-79
2022/02/21 02:42:04;;;;;;;2.58;1.20;;;6.00;99.90;;;;;;4994815;28;20046;-77
2022/02/21 02:44:30;;;;;;;1.55;0.95;;;5.90;99.90;;;;;;5012300;28;20033;-78
2022/02/21 02:46:57;;;;;;;3.72;1.58;;;5.80;99.90;;;;;;4994186;28;20050;-79
2022/02/21 02:49:23;;;;;;;3.03;1.42;;;5.90;99.90;;;;;;4994235;28;20026;-77
2022/02/21 02:51:49;;;;;;;3.60;2.03;;;5.90;99.90;;;;;;4979560;28;20046;-81
2022/02/21 02:54:15;;;;;;;4.60;2.05;;;5.90;99.90;;;;;;5011036;28;20033;-78
2022/02/21 02:56:44;;;;;;;4.18;1.42;;;6.00;99.90;;;;;;5011357;28;20038;-79
2022/02/21 02:59:10;;;;;;;2.88;1.30;;;6.10;99.90;;;;;;4993535;28;20442;-79
2022/02/21 03:01:36;;;;;;;5.43;1.83;;;6.10;99.90;;;;;;4994149;28;20046;-80
2022/02/21 03:04:03;;;;;;;2.15;1.23;;;6.20;99.90;;;;;;5012862;28;20041;-81
2022/02/21 03:06:29;;;;;;;3.72;1.20;;;6.10;99.90;;;;;;4992998;28;20053;-81
2022/02/21 03:08:56;;;;;;;7.25;1.85;;;6.20;99.90;;;;;;4979288;28;20042;-82
2022/02/21 03:11:22;;;;;;;6.15;1.73;;;6.20;99.90;;;;;;4978690;28;20046;-79
2022/02/21 03:13:48;;;;;;;5.50;1.55;;;6.20;99.90;;;;;;5011310;28;20030;-80
2022/02/21 03:16:15;;;;;;;7.40;1.83;;;6.30;99.90;;;;;;4992931;28;20056;-82
2022/02/21 03:18:41;;;;;;;4.93;1.63;;;6.20;99.90;;;;;;5011380;28;20038;-80
2022/02/21 03:21:07;;;;;;;3.90;1.48;;;6.20;99.90;;;;;;5012017;28;20030;-77
2022/02/21 03:23:33;;;;;;;3.05;1.58;;;6.30;99.90;;;;;;4994980;28;20494;-79
2022/02/21 03:25:59;;;;;;;3.58;1.30;;;6.50;99.90;;;;;;5012160;28;20066;-79
2022/02/21 03:28:25;;;;;;;3.67;1.38;;;6.60;99.90;;;;;;4994591;28;20026;-79
2022/02/21 03:30:53;;;;;;;4.63;2.00;;;6.50;99.90;;;;;;4993552;28;20037;-79
2022/02/21 03:33:19;;;;;;;2.47;1.20;;;6.50;99.90;;;;;;5010520;28;20038;-80
2022/02/21 03:35:45;;;;;;;4.72;1.85;;;6.50;99.90;;;;;;4993446;28;20033;-79
2022/02/21 03:38:12;;;;;;;3.88;1.98;;;6.60;99.90;;;;;;5010215;28;20045;-79
2022/02/21 03:40:38;;;;;;;2.70;1.23;;;6.60;99.70;;;;;;5011168;28;20030;-78
2022/02/21 03:43:04;;;;;;;4.45;2.22;;;6.60;99.60;;;;;;4993567;28;20041;-78
2022/02/21 03:45:31;;;;;;;4.40;1.48;;;6.60;97.70;;;;;;4992246;28;20045;-79
2022/02/21 03:47:57;;;;;;;4.13;1.45;;;6.70;97.10;;;;;;4993427;28;20038;-79
2022/02/21 03:50:24;;;;;;;3.97;1.40;;;6.70;95.50;;;;;;5010115;28;20030;-80
2022/02/21 03:52:50;;;;;;;4.60;1.88;;;6.70;97.10;;;;;;4992557;28;20479;-80
2022/02/21 03:55:17;;;;;;;3.08;1.30;;;6.60;97.80;;;;;;5010088;28;20037;-79
2022/02/21 03:57:43;;;;;;;12.77;1.80;;;6.60;96.40;;;;;;5022747;28;20034;-79
2022/02/21 04:00:12;;;;;;;7.28;1.85;;;6.70;94.80;;;;;;4993473;28;20045;-82
2022/02/21 04:02:38;;;;;;;7.75;1.58;;;6.70;91.90;;;;;;4994079;28;20405;-79
2022/02/21 04:05:05;;;;;;;4.78;1.55;;;6.70;91.50;;;;;;5010492;28;20029;-78
2022/02/21 04:07:32;;;;;;;4.55;1.50;;;6.90;84.20;;;;;;4977882;28;20054;-77
2022/02/21 04:09:58;;;;;;;3.22;1.50;;;7.00;81.90;;;;;;4993033;28;20038;-78
2022/02/21 04:12:24;;;;;;;5.80;1.48;;;6.70;85.20;;;;;;5009693;28;20390;-78
2022/02/21 04:14:50;;;;;;;4.47;1.92;;;6.70;81.50;;;;;;4977515;28;20046;-77
2022/02/21 04:17:17;;;;;;;4.13;1.48;;;6.70;80.60;;;;;;4992469;28;20041;-80
2022/02/21 04:19:46;;;;;;;3.35;1.35;;;6.60;80.60;;;;;;4993841;28;20040;-78
2022/02/21 04:22:14;;;;;;;3.83;1.63;;;6.60;79.60;;;;;;5010399;28;20038;-79
2022/02/21 04:24:41;;;;;;;2.05;1.00;;;6.70;77.90;;;;;;4993081;28;20030;-78
2022/02/21 04:27:08;;;;;;;3.05;1.80;;;6.60;75.20;;;;;;4992209;28;20044;-79
2022/02/21 04:29:34;;;;;;;4.32;2.13;;;6.60;74.90;;;;;;4992516;28;20038;-79
2022/02/21 04:32:00;;;;;;;5.40;1.65;;;6.50;74.90;;;;;;4993238;28;20061;-79
2022/02/21 04:34:27;;;;;;;2.63;1.00;;;6.60;73.10;;;;;;5011846;28;20034;-79
2022/02/21 04:36:53;;;;;;;28.90;17.65;;;6.60;72.70;;;;;;5011458;28;20037;-79
2022/02/21 04:39:19;;;;;;;5.38;1.83;;;6.50;76.80;;;;;;5013190;28;20033;-80
2022/02/21 04:41:46;;;;;;;3.10;1.88;;;6.50;76.00;;;;;;5013583;28;20034;-79
2022/02/21 04:44:12;;;;;;;3.15;1.45;;;6.60;76.50;;;;;;5013329;28;20383;-81
2022/02/21 04:46:38;;;;;;;2.92;1.90;;;6.50;77.80;;;;;;5014321;28;20034;-78
2022/02/21 04:49:04;;;;;;;7.18;1.60;;;6.50;77.50;;;;;;5013628;28;20026;-79
2022/02/21 04:51:30;;;;;;;4.75;2.03;;;6.60;74.10;;;;;;4995007;28;20121;-79
2022/02/21 04:53:57;;;;;;;3.58;1.50;;;6.60;71.30;;;;;;4995216;28;20378;-77
2022/02/21 04:56:23;;;;;;;7.55;2.22;;;6.70;69.00;;;;;;5012826;28;20030;-79
2022/02/21 04:58:49;;;;;;;4.00;1.05;;;6.70;68.10;;;;;;5013414;28;20459;-78
2022/02/21 05:01:15;;;;;;;14.32;2.10;;;6.70;67.30;;;;;;5013377;28;20386;-77
2022/02/21 05:03:41;;;;;;;3.75;1.55;;;6.60;68.60;;;;;;5013681;28;20034;-80
2022/02/21 05:06:07;;;;;;;7.10;2.08;;;6.50;69.30;;;;;;4995776;28;20455;-78
2022/02/21 05:08:33;;;;;;;3.85;1.42;;;6.40;70.10;;;;;;4995415;28;20038;-80
2022/02/21 05:11:00;;;;;;;3.70;1.55;;;6.30;71.70;;;;;;4995205;28;20496;-76
2022/02/21 05:13:26;;;;;;;3.65;1.60;;;6.40;70.20;;;;;;4994890;28;20041;-77
2022/02/21 05:15:52;;;;;;;3.03;1.15;;;6.40;70.20;;;;;;4995020;28;20061;-79
2022/02/21 05:18:18;;;;;;;3.83;1.63;;;6.40;70.40;;;;;;5063813;28;20474;-78
2022/02/21 05:20:44;;;;;;;4.18;1.70;;;6.30;70.80;;;;;;4995206;28;20068;-78
2022/02/21 05:23:11;;;;;;;13.63;1.75;;;6.30;71.10;;;;;;5002773;28;20383;-78
2022/02/21 05:25:37;;;;;;;8.82;1.88;;;6.20;71.00;;;;;;5013715;28;20045;-78
2022/02/21 05:28:03;;;;;;;7.18;1.42;;;6.20;70.40;;;;;;4996626;28;20037;-78
2022/02/21 05:30:29;;;;;;;5.00;2.50;;;6.10;70.00;;;;;;4995328;28;20030;-76
2022/02/21 05:32:55;;;;;;;5.40;2.25;;;6.10;69.60;;;;;;5013261;28;20037;-79
2022/02/21 05:35:22;;;;;;;6.22;2.10;;;6.10;69.10;;;;;;5012640;28;20033;-77
2022/02/21 05:37:48;;;;;;;7.07;2.65;;;6.00;70.20;;;;;;5013464;28;20042;-79
2022/02/21 05:40:15;;;;;;;6.90;2.67;;;5.90;71.00;;;;;;4984368;28;20038;-78
2022/02/21 05:42:41;;;;;;;6.88;2.22;;;5.90;70.70;;;;;;5016088;28;20038;-76
2022/02/21 05:45:07;;;;;;;3.42;2.28;;;5.90;70.10;;;;;;4998281;28;20045;-76
2022/02/21 05:47:34;;;;;;;6.53;2.17;;;5.90;70.60;;;;;;5004310;28;20048;-77
2022/02/21 05:50:00;;;;;;;11.73;2.25;;;5.90;69.50;;;;;;5000417;28;20041;-78
2022/02/21 05:52:26;;;;;;;6.85;2.25;;;5.90;69.30;;;;;;4995261;28;20029;-77
2022/02/21 05:54:52;;;;;;;8.48;2.30;;;5.80;69.10;;;;;;5012799;28;20108;-77
2022/02/21 05:57:19;;;;;;;7.10;2.40;;;5.80;68.60;;;;;;4980453;28;20046;-79
2022/02/21 05:59:45;;;;;;;4.03;2.08;;;5.70;68.20;;;;;;5012936;28;20030;-78
2022/02/21 06:02:11;;;;;;;7.70;1.98;;;5.70;67.50;;;;;;4994978;28;20030;-76
2022/02/21 06:04:37;;;;;;;7.90;2.75;;;5.70;67.70;;;;;;5012185;28;20386;-77
2022/02/21 06:07:04;;;;;;;6.82;2.47;;;5.80;67.70;;;;;;4995754;28;20048;-77
2022/02/21 06:09:30;;;;;;;6.13;2.40;;;5.80;66.70;;;;;;4998981;28;20034;-81
2022/02/21 06:11:56;;;;;;;7.85;2.05;;;5.80;67.30;;;;;;5011892;28;20034;-77
2022/02/21 06:14:22;;;;;;;4.78;2.60;;;5.80;67.10;;;;;;5019725;28;20034;-78
2022/02/21 06:16:49;;;;;;;4.32;2.03;;;5.70;68.60;;;;;;5115267;28;20043;-77
2022/02/21 06:19:15;;;;;;;5.38;2.72;;;5.80;68.20;;;;;;5080699;28;20468;-77
2022/02/21 06:21:42;;;;;;;8.73;2.97;;;5.70;68.10;;;;;;5096156;28;20038;-75
2022/02/21 06:24:08;;;;;;;13.27;3.55;;;5.60;68.60;;;;;;5061702;28;20039;-76
2022/02/21 06:26:35;;;;;;;10.63;3.35;;;5.70;67.40;;;;;;5030565;28;20061;-76
2022/02/21 06:29:01;;;;;;;8.88;4.20;;;5.60;68.00;;;;;;4994982;28;20386;-76
2022/02/21 06:31:27;;;;;;;7.43;3.20;;;5.70;67.40;;;;;;5010443;28;20026;-76
2022/02/21 06:33:53;;;;;;;15.45;3.80;;;5.60;67.50;;;;;;5011201;28;20459;-75
2022/02/21 06:36:20;;;;;;;12.13;3.25;;;5.60;67.20;;;;;;4977975;28;20045;-76
2022/02/21 06:38:46;;;;;;;6.82;2.22;;;5.50;67.80;;;;;;5068072;28;20047;-77
2022/02/21 06:41:14;;;;;;;8.73;2.95;;;5.60;67.40;;;;;;5114554;28;20388;-77
2022/02/21 06:43:41;;;;;;;5.32;2.83;;;5.60;67.60;;;;;;5114264;28;20031;-76
2022/02/21 06:46:08;;;;;;;7.50;3.22;;;5.50;68.40;;;;;;5096634;28;20047;-75
2022/02/21 06:48:34;;;;;;;6.95;3.10;;;5.50;68.80;;;;;;5078473;28;20381;-76
2022/02/21 06:51:02;;;;;;;8.77;2.85;;;5.60;69.40;;;;;;5011883;28;20030;-76
2022/02/21 06:53:29;;;;;;;5.88;2.85;;;5.60;70.30;;;;;;5010041;28;20031;-75
2022/02/21 06:55:55;;;;;;;8.13;2.88;;;5.60;70.50;;;;;;5010445;28;20041;-77
2022/02/21 06:58:21;;;;;;;11.57;3.20;;;5.70;70.30;;;;;;5009474;28;20042;-76
2022/02/21 07:00:47;;;;;;;6.07;2.67;;;5.80;70.20;;;;;;4992406;28;20033;-75
2022/02/21 07:03:14;;;;;;;5.47;2.75;;;5.80;70.20;;;;;;4993499;28;20042;-76
2022/02/21 07:05:40;;;;;;;10.30;2.92;;;5.80;70.20;;;;;;5010770;28;20041;-75
2022/02/21 07:08:07;;;;;;;13.55;3.05;;;5.80;69.80;;;;;;5002307;28;20466;-75
2022/02/21 07:10:33;;;;;;;7.00;2.85;;;5.90;69.70;;;;;;5030118;28;20034;-77
2022/02/21 07:12:59;;;;;;;7.82;2.88;;;6.00;69.80;;;;;;5014530;28;20399;-76
2022/02/21 07:15:26;;;;;;;17.83;3.28;;;5.90;70.20;;;;;;5024432;28;20053;-75
2022/02/21 07:17:52;;;;;;;8.38;4.05;;;6.00;69.40;;;;;;5010314;28;20051;-76
2022/02/21 07:20:18;;;;;;;14.00;4.55;;;6.00;69.60;;;;;;4999379;28;20038;-73
2022/02/21 07:22:46;;;;;;;7.78;4.07;;;6.00;70.00;;;;;;4989574;28;20038;-75
2022/02/21 07:25:15;;;;;;;11.38;4.18;;;6.00;70.30;;;;;;4988753;28;20045;-74
2022/02/21 07:27:50;;;;;;;10.75;3.53;;;5.90;71.50;;;;;;4989932;28;20603;-74
2022/02/21 07:30:18;;;;;;;16.02;4.00;;;5.90;70.50;;;;;;4990751;28;20035;-74
2022/02/21 07:32:46;;;;;;;13.32;6.18;;;5.90;70.10;;;;;;4973802;28;20047;-74
2022/02/21 07:35:12;;;;;;;13.65;4.70;;;6.00;70.10;;;;;;4988806;28;20046;-73
2022/02/21 07:37:41;;;;;;;15.65;4.30;;;6.00;70.30;;;;;;5016856;28;20036;-75
2022/02/21 07:40:10;;;;;;;9.82;3.40;;;6.10;69.90;;;;;;5093155;28;20028;-77
2022/02/21 07:42:38;;;;;;;11.38;3.75;;;6.30;69.50;;;;;;5091801;28;20402;-75
2022/02/21 07:45:04;;;;;;;4.43;2.25;;;6.40;69.20;;;;;;5035046;28;20470;-77
2022/02/21 07:47:31;;;;;;;13.90;3.42;;;6.30;69.00;;;;;;4989079;28;20042;-76
2022/02/21 07:49:57;;;;;;;6.43;2.35;;;6.10;69.60;;;;;;4988270;28;20026;-76
2022/02/21 07:52:24;;;;;;;7.03;2.13;;;6.40;69.50;;;;;;4990543;28;20030;-77
2022/02/21 07:54:51;;;;;;;5.63;2.03;;;6.90;68.40;;;;;;4991338;28;20038;-75
2022/02/21 07:57:17;;;;;;;13.65;2.58;;;7.00;68.20;;;;;;4990362;28;20045;-76
2022/02/21 07:59:43;;;;;;;3.75;1.55;;;7.10;68.10;;;;;;4988836;28;20033;-75
2022/02/21 08:02:10;;;;;;;7.63;2.35;;;7.10;68.20;;;;;;4988356;28;20026;-76
2022/02/21 08:04:36;;;;;;;9.27;1.80;;;7.10;69.00;;;;;;4988903;28;20041;-77
2022/02/21 08:07:02;;;;;;;8.05;2.03;;;7.10;69.80;;;;;;4991210;28;20498;-76
2022/02/21 08:09:28;;;;;;;4.05;1.70;;;6.90;72.00;;;;;;5091273;28;20043;-76
2022/02/21 08:11:55;;;;;;;12.55;2.35;;;6.80;73.40;;;;;;5076093;28;21505;-74
2022/02/21 08:14:22;;;;;;;5.40;2.10;;;6.70;73.70;;;;;;4988618;28;20030;-79
2022/02/21 08:16:48;;;;;;;9.93;3.70;;;6.60;75.10;;;;;;5008409;28;20042;-77
2022/02/21 08:19:14;;;;;;;7.68;2.55;;;6.80;74.80;;;;;;4992127;28;20065;-77
2022/02/21 08:21:40;;;;;;;6.32;2.55;;;6.90;74.40;;;;;;4991386;28;20382;-76
2022/02/21 08:24:07;;;;;;;4.28;1.77;;;6.80;73.80;;;;;;4991844;28;20045;-77
2022/02/21 08:26:34;;;;;;;7.55;2.63;;;6.90;74.10;;;;;;5008472;28;20077;-77
2022/02/21 08:29:01;;;;;;;7.30;2.47;;;7.10;73.70;;;;;;5009750;28;20045;-77
2022/02/21 08:31:27;;;;;;;5.50;2.20;;;7.10;73.80;;;;;;4992660;28;20042;-77
2022/02/21 08:33:53;;;;;;;6.63;2.63;;;7.40;71.90;;;;;;5009098;28;20038;-77
2022/02/21 08:36:19;;;;;;;6.50;2.17;;;7.70;71.90;;;;;;4991932;28;20467;-77
2022/02/21 08:38:46;;;;;;;4.65;1.83;;;7.80;71.60;;;;;;5082902;28;20043;-77
2022/02/21 08:41:12;;;;;;;9.75;2.58;;;7.70;69.30;;;;;;5112110;28;20044;-76
2022/02/21 08:43:38;;;;;;;2.65;1.42;;;7.80;69.50;;;;;;5111680;28;20028;-77
2022/02/21 08:46:04;;;;;;;11.02;2.58;;;8.40;67.70;;;;;;5112650;28;20032;-76
2022/02/21 08:48:30;;;;;;;5.25;1.33;;;7.80;65.90;;;;;;5093086;28;20040;-77
2022/02/21 08:50:57;;;;;;;5.32;1.80;;;7.70;66.50;;;;;;5077398;28;20039;-76
2022/02/21 08:53:23;;;;;;;4.50;1.55;;;7.40;67.10;;;;;;5112033;28;20483;-76
2022/02/21 08:55:49;;;;;;;4.85;1.73;;;7.40;66.10;;;;;;5111902;28;20023;-77
2022/02/21 08:58:15;;;;;;;3.60;1.45;;;7.30;67.70;;;;;;5094337;28;20048;-77
2022/02/21 09:00:43;;;;;;;1.92;0.90;;;7.40;68.80;;;;;;5111391;28;20483;-77
2022/02/21 09:03:09;;;;;;;4.10;0.90;;;7.70;68.00;;;;;;5112739;28;20034;-77
2022/02/21 09:05:36;;;;;;;3.28;1.00;;;8.30;66.60;;;;;;5112143;28;20028;-78
2022/02/21 09:08:04;;;;;;;2.33;1.10;;;8.30;65.90;;;;;;5112259;28;20472;-78
2022/02/21 09:10:31;;;;;;;2.72;0.75;;;8.00;67.60;;;;;;5112110;28;20054;-77
2022/02/21 09:12:58;;;;;;;1.75;1.08;;;8.40;68.50;;;;;;5093967;28;20046;-77
2022/02/21 09:15:25;;;;;;;1.80;1.02;;;8.00;68.40;;;;;;5112059;28;20048;-77
2022/02/21 09:17:52;;;;;;;5.45;1.42;;;7.70;70.00;;;;;;5111877;28;20046;-78
2022/02/21 09:20:18;;;;;;;1.25;0.77;;;7.50;69.90;;;;;;5112162;28;20035;-77
2022/02/21 09:22:45;;;;;;;1.02;0.68;;;7.10;71.00;;;;;;5113573;28;20024;-77
2022/02/21 09:25:12;;;;;;;5.35;1.42;;;7.10;71.70;;;;;;5116870;28;20032;-76
2022/02/21 09:27:38;;;;;;;2.72;0.82;;;7.10;71.50;;;;;;5115571;28;20027;-76
2022/02/21 09:30:06;;;;;;;2.40;0.80;;;6.80;71.20;;;;;;5116356;28;20039;-76
2022/02/21 09:32:32;;;;;;;3.40;1.20;;;6.70;72.40;;;;;;5114649;28;20048;-76
2022/02/21 09:34:58;;;;;;;2.38;0.88;;;6.70;72.50;;;;;;5115452;28;20035;-76
2022/02/21 09:37:26;;;;;;;6.90;0.70;;;6.60;72.80;;;;;;5044902;28;20081;-75
2022/02/21 09:39:52;;;;;;;1.73;0.90;;;6.60;72.90;;;;;;5011161;28;20041;-76
2022/02/21 09:42:21;;;;;;;3.42;1.15;;;6.60;72.10;;;;;;5010855;28;20154;-77
2022/02/21 09:44:47;;;;;;;4.07;0.60;;;6.60;73.00;;;;;;4993837;28;20067;-76
2022/02/21 09:47:18;;;;;;;2.55;0.90;;;6.60;73.50;;;;;;4995999;28;20034;-78
2022/02/21 09:49:44;;;;;;;2.42;1.00;;;6.80;72.70;;;;;;5014378;28;20025;-77
2022/02/21 09:52:10;;;;;;;2.15;0.80;;;6.90;71.80;;;;;;4979523;28;20034;-79
2022/02/21 09:54:39;;;;;;;1.10;0.65;;;6.90;72.20;;;;;;5011178;28;20394;-76
2022/02/21 09:57:05;;;;;;;0.88;0.60;;;6.90;71.30;;;;;;4994497;28;20034;-77
2022/02/21 09:59:32;;;;;;;3.20;1.05;;;6.90;72.00;;;;;;5011689;28;20053;-77
2022/02/21 10:01:59;;;;;;;2.63;0.85;;;6.90;72.70;;;;;;5014710;28;20443;-76
2022/02/21 10:04:27;;;;;;;2.60;0.80;;;7.00;72.10;;;;;;5001696;28;20045;-77
2022/02/21 10:06:57;;;;;;;3.88;1.25;;;7.20;70.70;;;;;;5005758;28;20101;-76
2022/02/21 10:09:24;;;;;;;3.78;1.27;;;7.10;71.00;;;;;;5016083;28;20068;-76
2022/02/21 10:11:51;;;;;;;1.98;1.15;;;6.90;71.30;;;;;;5037025;28;20037;-76
2022/02/21 10:14:21;;;;;;;6.68;1.27;;;6.80;71.80;;;;;;5031108;28;20026;-77
2022/02/21 10:16:56;;;;;;;2.20;0.85;;;6.80;71.60;;;;;;5014075;28;20037;-77
2022/02/21 10:19:29;;;;;;;0.95;0.60;;;6.90;70.70;;;;;;4993850;28;20045;-77
2022/02/21 10:22:01;;;;;;;4.30;1.08;;;6.90;70.60;;;;;;5012581;28;20034;-77
2022/02/21 10:24:41;;;;;;;5.70;1.10;;;7.10;70.60;;;;;;4993166;28;20068;-77
2022/02/21 10:27:13;;;;;;;2.95;0.90;;;7.30;69.70;;;;;;5011641;28;20034;-77
2022/02/21 10:29:54;;;;;;;1.60;0.70;;;7.20;67.70;;;;;;4976303;28;20049;-77
2022/02/21 10:32:26;;;;;;;2.83;0.90;;;7.30;68.70;;;;;;5010751;28;20390;-77
2022/02/21 10:34:54;;;;;;;2.00;1.08;;;7.50;67.20;;;;;;5010574;28;20060;-78
2022/02/21 10:37:27;;;;;;;6.53;1.17;;;7.40;67.30;;;;;;5024298;28;20026;-78
2022/02/21 10:40:14;;;;;;;1.92;0.95;;;7.30;68.20;;;;;;5032466;28;20037;-78
2022/02/21 10:42:43;;;;;;;5.00;1.38;;;7.30;68.20;;;;;;4989466;28;20383;-78
2022/02/21 10:45:12;;;;;;;3.97;1.27;;;7.30;67.90;;;;;;5007474;28;20032;-77
2022/02/21 10:47:38;;;;;;;3.58;1.13;;;7.30;68.50;;;;;;5009604;28;20096;-77
2022/02/21 10:50:05;;;;;;;2.10;1.05;;;7.50;68.10;;;;;;5010560;28;20026;-78
2022/02/21 10:52:35;;;;;;;1.85;1.02;;;7.40;68.30;;;;;;4992067;28;20029;-78
2022/02/21 10:55:05;;;;;;;3.42;1.80;;;7.40;69.00;;;;;;4993029;28;20040;-78
2022/02/21 10:57:42;;;;;;;2.67;1.40;;;7.40;69.70;;;;;;4991729;28;20030;-77
2022/02/21 11:00:10;;;;;;;1.90;0.93;;;7.30;70.30;;;;;;4990148;28;20042;-78
2022/02/21 11:02:41;;;;;;;3.30;1.45;;;7.20;71.30;;;;;;5008712;28;20472;-78
2022/02/21 11:05:09;;;;;;;3.65;1.10;;;7.20;71.20;;;;;;4990578;28;20462;-77
2022/02/21 11:07:38;;;;;;;3.60;1.77;;;7.30;69.50;;;;;;5009938;28;20022;-77
2022/02/21 11:10:06;;;;;;;1.80;1.02;;;7.30;69.60;;;;;;4992189;28;20030;-77
2022/02/21 11:12:36;;;;;;;8.02;1.70;;;7.40;70.40;;;;;;5010110;28;20482;-78
2022/02/21 11:15:04;;;;;;;3.60;1.52;;;7.40;70.30;;;;;;5009994;28;20672;-78
2022/02/21 11:17:30;;;;;;;2.10;1.00;;;7.20;70.30;;;;;;5009608;28;20037;-78
2022/02/21 11:19:57;;;;;;;9.57;4.15;;;7.20;70.30;;;;;;5010211;28;20022;-79
2022/02/21 11:22:25;;;;;;;4.20;3.65;;;7.30;70.70;;;;;;5010836;28;20026;-79
2022/02/21 11:24:57;;;;;;;8.70;4.53;;;7.30;69.50;;;;;;5010287;28;20026;-77
2022/02/21 11:27:40;;;;;;;7.60;2.00;;;7.30;69.90;;;;;;4992256;28;20474;-78
2022/02/21 11:30:14;;;;;;;3.60;1.05;;;7.40;70.00;;;;;;5008295;28;20029;-77
2022/02/21 11:33:02;;;;;;;5.45;0.90;;;7.60;68.80;;;;;;5009041;28;20041;-78
2022/02/21 11:35:29;;;;;;;3.30;1.75;;;7.70;66.80;;;;;;5008997;28;20026;-78
2022/02/21 11:38:02;;;;;;;4.57;1.58;;;7.60;67.00;;;;;;5048913;28;20047;-78
2022/02/21 11:40:28;;;;;;;2.90;1.48;;;7.50;68.20;;;;;;5088424;28;20022;-78
2022/02/21 11:42:54;;;;;;;6.70;2.10;;;7.40;68.20;;;;;;5009642;28;20029;-78
2022/02/21 11:45:24;;;;;;;5.22;1.88;;;7.40;68.70;;;;;;4991608;28;20042;-78
2022/02/21 11:47:52;;;;;;;3.88;1.85;;;7.40;68.50;;;;;;5009032;28;20026;-78
2022/02/21 11:50:19;;;;;;;3.58;1.70;;;7.50;68.50;;;;;;5007495;28;20034;-77
2022/02/21 11:52:50;;;;;;;1.75;0.90;;;7.70;67.50;;;;;;5008632;28;20109;-77
2022/02/21 11:55:35;;;;;;;4.70;1.60;;;7.70;66.90;;;;;;5009437;28;20030;-78
2022/02/21 11:58:13;;;;;;;5.28;1.73;;;7.60;66.40;;;;;;4991645;28;20057;-78
2022/02/21 12:00:42;;;;;;;3.88;1.33;;;7.60;66.90;;;;;;4990875;28;20045;-78
2022/02/21 12:03:18;;;;;;;3.75;1.52;;;7.50;66.00;;;;;;5008925;28;20029;-78
2022/02/21 12:05:46;;;;;;;3.70;1.33;;;7.50;66.30;;;;;;5008663;28;20022;-78
2022/02/21 12:08:28;;;;;;;5.35;1.77;;;7.50;66.30;;;;;;4991467;28;20029;-77
2022/02/21 12:11:15;;;;;;;3.45;1.92;;;7.50;66.40;;;;;;4988286;28;20030;-78
2022/02/21 12:13:44;;;;;;;6.18;1.75;;;7.50;66.40;;;;;;5008898;28;20064;-78
2022/02/21 12:16:13;;;;;;;11.05;2.08;;;7.50;66.30;;;;;;5009095;28;20068;-77
2022/02/21 12:18:45;;;;;;;8.10;3.88;;;7.50;66.70;;;;;;5008518;28;20030;-78
2022/02/21 12:21:14;;;;;;;7.60;3.05;;;7.40;67.10;;;;;;5013181;28;20033;-79
2022/02/21 12:24:04;;;;;;;5.97;2.70;;;7.40;66.70;;;;;;5008199;28;20482;-77
2022/02/21 12:26:35;;;;;;;4.22;1.77;;;7.40;66.90;;;;;;4999867;28;20065;-78
2022/02/21 12:29:13;;;;;;;4.18;1.50;;;7.40;67.30;;;;;;5009414;28;20030;-78
2022/02/21 12:31:45;;;;;;;5.95;1.98;;;7.40;68.70;;;;;;5007902;28;20042;-78
2022/02/21 12:34:14;;;;;;;4.45;1.88;;;7.40;68.70;;;;;;4991096;28;20045;-77
2022/02/21 12:36:48;;;;;;;5.30;2.75;;;7.40;69.00;;;;;;5007568;28;20042;-78
2022/02/21 12:39:16;;;;;;;4.38;1.25;;;7.30;69.60;;;;;;5013781;28;20046;-78
2022/02/21 12:41:42;;;;;;;6.50;2.10;;;7.30;70.00;;;;;;5025779;28;20042;-78
2022/02/21 12:44:11;;;;;;;4.28;1.48;;;7.20;70.20;;;;;;5009021;28;20030;-78
2022/02/21 12:46:41;;;;;;;13.07;1.98;;;7.20;71.60;;;;;;5008872;28;20042;-78
2022/02/21 12:49:15;;;;;;;2.15;1.35;;;7.20;71.30;;;;;;5075960;28;20045;-77
2022/02/21 12:51:46;;;;;;;5.80;1.92;;;7.20;71.10;;;;;;5008452;28;20034;-78
2022/02/21 12:54:13;;;;;;;4.50;1.40;;;7.30;70.30;;;;;;5009024;28;20041;-77
2022/02/21 12:56:49;;;;;;;12.10;2.10;;;7.40;69.60;;;;;;5008069;28;20034;-78
2022/02/21 12:59:21;;;;;;;5.63;1.65;;;7.50;70.00;;;;;;5011724;28;20398;-77